Time;durP1;ratioP1;P1;durP2;ratioP2;P2;SDS_P1;SDS_P2;PMS_P1;PMS_P2;Temp;Humidity;BMP_temperature;BMP_pressure;BME280_temperature;BME280_humidity;BME280_pressure;Samples;Min_cycle;Max_cycle;Signal;HPM_P1;HPM_P2
2022/03/20 00:00:40;;;;;;;44.10;25.67;;;;;;;;;;7374665;19;20009;-84
2022/03/20 00:03:07;;;;;;;47.53;25.60;;;;;;;;;;7372039;19;20007;-84
2022/03/20 00:05:38;;;;;;;42.30;24.77;;;;;;;;;;7376568;19;20001;-82
2022/03/20 00:08:08;;;;;;;44.55;24.63;;;;;;;;;;7370885;19;20018;-80
2022/03/20 00:10:34;;;;;;;47.17;26.15;;;;;;;;;;7369013;19;20014;-82
2022/03/20 00:12:59;;;;;;;52.35;27.73;;;;;;;;;;7374404;19;20011;-81
2022/03/20 00:15:24;;;;;;;44.00;25.40;;;;;;;;;;7374559;19;20072;-81
2022/03/20 00:17:49;;;;;;;50.55;26.55;;;;;;;;;;7366987;19;20255;-83
2022/03/20 00:20:15;;;;;;;46.20;27.40;;;;;;;;;;7372564;19;19999;-82
2022/03/20 00:22:40;;;;;;;47.08;26.38;;;;;;;;;;7370412;19;20381;-85
2022/03/20 00:25:05;;;;;;;49.78;26.63;;;;;;;;;;7374206;19;20014;-88
2022/03/20 00:27:31;;;;;;;44.97;26.35;;;;;;;;;;7383658;19;20007;-82
2022/03/20 00:29:56;;;;;;;42.05;25.30;;;;;;;;;;7379744;19;20011;-84
2022/03/20 00:32:22;;;;;;;46.42;27.38;;;;;;;;;;7381691;19;20730;-85
2022/03/20 00:34:47;;;;;;;44.28;25.25;;;;;;;;;;7377902;19;19991;-85
2022/03/20 00:37:12;;;;;;;46.92;26.58;;;;;;;;;;7381142;19;20006;-83
2022/03/20 00:39:37;;;;;;;44.53;25.60;;;;;;;;;;7373228;19;19998;-82
2022/03/20 00:42:03;;;;;;;46.72;27.88;;;;;;;;;;7379230;19;20255;-83
2022/03/20 00:44:29;;;;;;;46.42;25.75;;;;;;;;;;7382904;19;20003;-83
2022/03/20 00:46:54;;;;;;;49.38;27.08;;;;;;;;;;7380410;19;20014;-82
2022/03/20 00:49:20;;;;;;;45.53;26.77;;;;;;;;;;7381763;19;20539;-82
2022/03/20 00:51:45;;;;;;;43.50;25.92;;;;;;;;;;7381148;19;20003;-87
2022/03/20 00:54:13;;;;;;;47.75;25.98;;;;;;;;;;7373232;19;20003;-81
2022/03/20 00:56:38;;;;;;;47.13;25.95;;;;;;;;;;7383560;19;20007;-81
2022/03/20 00:59:04;;;;;;;48.50;26.17;;;;;;;;;;7376221;19;19995;-85
2022/03/20 01:01:29;;;;;;;44.38;25.77;;;;;;;;;;7381908;19;20563;-82
2022/03/20 01:03:55;;;;;;;45.72;25.13;;;;;;;;;;7381247;19;20108;-82
2022/03/20 01:06:22;;;;;;;45.65;23.65;;;;;;;;;;7383509;19;20028;-82
2022/03/20 01:08:47;;;;;;;38.72;23.42;;;;;;;;;;7370426;19;20090;-85
2022/03/20 01:11:12;;;;;;;42.83;24.75;;;;;;;;;;7379403;19;20071;-86
2022/03/20 01:13:38;;;;;;;49.90;26.80;;;;;;;;;;7374315;19;20019;-81
2022/03/20 01:16:04;;;;;;;42.78;25.00;;;;;;;;;;7373854;19;20760;-84
2022/03/20 01:18:29;;;;;;;43.08;25.23;;;;;;;;;;7380280;19;20014;-84
2022/03/20 01:20:54;;;;;;;43.55;24.50;;;;;;;;;;7376939;19;20009;-86
2022/03/20 01:23:22;;;;;;;40.40;24.58;;;;;;;;;;7370525;19;20494;-89
2022/03/20 01:25:48;;;;;;;56.78;24.95;;;;;;;;;;7372809;19;19999;-82
2022/03/20 01:28:13;;;;;;;44.08;24.38;;;;;;;;;;7380707;19;20365;-84
2022/03/20 01:30:39;;;;;;;47.08;24.35;;;;;;;;;;7384777;19;20018;-83
2022/03/20 01:33:04;;;;;;;43.30;24.50;;;;;;;;;;7375381;19;20106;-84
2022/03/20 01:35:29;;;;;;;43.38;24.00;;;;;;;;;;7374918;19;20339;-87
2022/03/20 01:37:54;;;;;;;46.63;24.85;;;;;;;;;;7374055;19;20488;-84
2022/03/20 01:40:20;;;;;;;43.65;24.60;;;;;;;;;;7383444;19;20011;-79
2022/03/20 01:42:46;;;;;;;43.33;23.25;;;;;;;;;;7380949;19;20804;-82
2022/03/20 01:45:17;;;;;;;39.95;22.35;;;;;;;;;;7360636;19;20002;-86
2022/03/20 01:47:43;;;;;;;43.67;23.95;;;;;;;;;;7362524;19;20007;-84
2022/03/20 01:50:08;;;;;;;45.00;25.00;;;;;;;;;;7377727;19;20029;-82
2022/03/20 01:52:33;;;;;;;41.72;24.02;;;;;;;;;;7342833;19;20590;-84
2022/03/20 01:54:59;;;;;;;40.00;22.88;;;;;;;;;;7374779;19;20883;-80
2022/03/20 01:57:24;;;;;;;43.42;25.02;;;;;;;;;;7376650;19;20010;-81
2022/03/20 01:59:50;;;;;;;43.90;25.10;;;;;;;;;;7377171;19;20014;-80
2022/03/20 02:02:16;;;;;;;44.17;24.02;;;;;;;;;;7373509;19;20002;-85
2022/03/20 02:04:41;;;;;;;42.83;23.45;;;;;;;;;;7376921;19;20010;-84
2022/03/20 02:07:06;;;;;;;43.03;22.52;;;;;;;;;;7366071;19;20034;-82
2022/03/20 02:09:32;;;;;;;42.67;23.67;;;;;;;;;;7373641;19;19990;-86
2022/03/20 02:11:58;;;;;;;44.35;24.05;;;;;;;;;;7377244;19;20007;-80
2022/03/20 02:14:23;;;;;;;42.60;22.50;;;;;;;;;;7371152;19;20006;-84
2022/03/20 02:16:49;;;;;;;42.25;22.13;;;;;;;;;;7363526;19;20323;-86
2022/03/20 02:19:14;;;;;;;44.45;22.85;;;;;;;;;;7363684;19;20405;-87
2022/03/20 02:21:44;;;;;;;40.22;22.05;;;;;;;;;;7366340;19;20023;-88
2022/03/20 02:24:28;;;;;;;43.35;22.08;;;;;;;;;;7376058;19;20532;-82
2022/03/20 02:27:03;;;;;;;39.00;22.42;;;;;;;;;;7369419;19;20050;-83
2022/03/20 02:29:28;;;;;;;41.35;23.13;;;;;;;;;;7378404;19;20049;-83
2022/03/20 02:31:53;;;;;;;42.20;22.65;;;;;;;;;;7375662;19;20470;-91
2022/03/20 02:34:19;;;;;;;40.80;22.63;;;;;;;;;;7322937;19;20053;-85
2022/03/20 02:36:44;;;;;;;39.20;21.77;;;;;;;;;;7344300;19;20011;-81
2022/03/20 02:39:10;;;;;;;40.60;21.95;;;;;;;;;;7355352;19;20027;-83
2022/03/20 02:41:38;;;;;;;40.88;22.20;;;;;;;;;;7372494;19;20458;-86
2022/03/20 02:44:03;;;;;;;35.92;20.92;;;;;;;;;;7361825;19;19998;-83
2022/03/20 02:46:31;;;;;;;39.95;21.35;;;;;;;;;;7376404;19;20030;-86
2022/03/20 02:48:57;;;;;;;41.25;21.83;;;;;;;;;;7370080;19;20002;-83
2022/03/20 02:51:23;;;;;;;38.78;21.52;;;;;;;;;;7367517;19;20014;-81
2022/03/20 02:53:48;;;;;;;40.97;22.15;;;;;;;;;;7361929;19;19997;-84
2022/03/20 02:56:13;;;;;;;38.67;21.73;;;;;;;;;;7368343;19;20015;-82
2022/03/20 02:58:38;;;;;;;40.40;21.00;;;;;;;;;;7380089;19;20466;-81
2022/03/20 03:01:03;;;;;;;37.10;20.85;;;;;;;;;;7377388;19;20889;-84
2022/03/20 03:03:28;;;;;;;41.15;21.90;;;;;;;;;;7370769;19;20259;-84
2022/03/20 03:05:58;;;;;;;41.75;22.25;;;;;;;;;;7370995;19;20611;-92
2022/03/20 03:11:08;;;;;;;42.13;21.90;;;;;;;;;;7371408;19;20050;-85
2022/03/20 03:13:37;;;;;;;41.17;22.33;;;;;;;;;;7367994;19;20011;-83
2022/03/20 03:16:13;;;;;;;37.28;20.50;;;;;;;;;;7372135;19;20013;-82
2022/03/20 03:18:38;;;;;;;41.80;21.17;;;;;;;;;;7378867;19;20010;-83
2022/03/20 03:21:04;;;;;;;38.80;21.00;;;;;;;;;;7371304;19;20521;-85
2022/03/20 03:23:29;;;;;;;43.30;21.55;;;;;;;;;;7379583;19;20026;-83
2022/03/20 03:25:55;;;;;;;35.72;21.75;;;;;;;;;;7374967;19;19995;-83
2022/03/20 03:28:21;;;;;;;40.63;20.40;;;;;;;;;;7368555;19;20038;-81
2022/03/20 03:30:48;;;;;;;35.13;19.40;;;;;;;;;;7378465;19;20023;-82
2022/03/20 03:33:16;;;;;;;42.28;21.35;;;;;;;;;;7352997;19;20038;-83
2022/03/20 03:35:42;;;;;;;44.95;22.05;;;;;;;;;;7365473;19;19994;-81
2022/03/20 03:38:11;;;;;;;38.53;21.10;;;;;;;;;;7374336;19;20026;-84
2022/03/20 03:40:37;;;;;;;40.60;21.08;;;;;;;;;;7366029;19;20033;-84
2022/03/20 03:43:02;;;;;;;42.70;21.45;;;;;;;;;;7374733;19;20015;-85
2022/03/20 03:45:29;;;;;;;37.78;20.25;;;;;;;;;;7372545;19;20343;-83
2022/03/20 03:47:54;;;;;;;40.65;21.25;;;;;;;;;;7368709;19;20015;-82
2022/03/20 03:50:19;;;;;;;44.38;21.33;;;;;;;;;;7364085;19;20072;-87
2022/03/20 03:52:46;;;;;;;40.67;21.25;;;;;;;;;;7365046;19;20025;-85
2022/03/20 03:55:11;;;;;;;38.80;20.30;;;;;;;;;;7361115;19;20005;-85
2022/03/20 03:57:36;;;;;;;40.15;21.90;;;;;;;;;;7376397;19;20540;-87
2022/03/20 04:00:02;;;;;;;35.97;20.58;;;;;;;;;;7373291;19;20002;-83
2022/03/20 04:02:27;;;;;;;38.33;19.95;;;;;;;;;;7363181;19;20019;-86
2022/03/20 04:04:52;;;;;;;38.22;21.52;;;;;;;;;;7372033;19;20003;-86
2022/03/20 04:07:18;;;;;;;39.30;18.97;;;;;;;;;;7374044;19;20018;-85
2022/03/20 04:09:43;;;;;;;43.10;21.55;;;;;;;;;;7373451;19;20310;-86
2022/03/20 04:12:09;;;;;;;39.08;20.42;;;;;;;;;;7375329;19;20835;-86
2022/03/20 04:14:34;;;;;;;40.40;20.33;;;;;;;;;;7371087;19;19994;-79
2022/03/20 04:17:00;;;;;;;40.28;19.70;;;;;;;;;;7374625;19;20019;-83
2022/03/20 04:19:25;;;;;;;36.80;20.55;;;;;;;;;;7374093;19;20526;-85
2022/03/20 04:21:50;;;;;;;42.25;20.70;;;;;;;;;;7374499;19;20027;-86
2022/03/20 04:24:16;;;;;;;39.20;20.10;;;;;;;;;;7373827;19;20002;-85
2022/03/20 04:26:41;;;;;;;41.42;20.25;;;;;;;;;;7371083;19;20007;-81
2022/03/20 04:29:06;;;;;;;40.30;21.45;;;;;;;;;;7373708;19;20013;-83
2022/03/20 04:31:31;;;;;;;43.67;21.70;;;;;;;;;;7371851;19;19998;-86
2022/03/20 04:33:57;;;;;;;38.85;21.88;;;;;;;;;;7370640;19;20451;-82
2022/03/20 04:36:23;;;;;;;46.42;21.35;;;;;;;;;;7358747;19;20022;-83
2022/03/20 04:38:50;;;;;;;43.10;21.63;;;;;;;;;;7373709;19;20002;-82
2022/03/20 04:41:17;;;;;;;42.80;23.13;;;;;;;;;;7367254;19;20020;-80
2022/03/20 04:43:42;;;;;;;46.20;24.75;;;;;;;;;;7369044;19;20018;-82
2022/03/20 04:46:07;;;;;;;46.33;25.15;;;;;;;;;;7366635;19;20043;-84
2022/03/20 04:59:28;;;;;;;48.75;27.67;;;;;;;;;;7373351;19;20021;-83
2022/03/20 05:01:53;;;;;;;54.60;28.13;;;;;;;;;;7374174;19;20069;-87
2022/03/20 05:04:19;;;;;;;46.20;26.92;;;;;;;;;;7373374;19;20252;-83
2022/03/20 05:06:45;;;;;;;45.65;26.55;;;;;;;;;;7372010;19;20408;-82
2022/03/20 05:14:38;;;;;;;46.78;26.65;;;;;;;;;;7379534;19;20417;-81
2022/03/20 05:17:06;;;;;;;49.65;27.55;;;;;;;;;;7377444;19;20014;-82
2022/03/20 05:19:35;;;;;;;54.15;28.23;;;;;;;;;;7373332;19;20014;-82
2022/03/20 05:22:01;;;;;;;49.72;27.33;;;;;;;;;;7377966;19;20014;-88
2022/03/20 05:24:26;;;;;;;52.22;27.50;;;;;;;;;;7379244;19;20009;-85
2022/03/20 05:26:52;;;;;;;50.42;27.60;;;;;;;;;;7380479;19;20494;-81
2022/03/20 05:29:17;;;;;;;47.50;26.20;;;;;;;;;;7376481;19;20538;-86
2022/03/20 05:31:42;;;;;;;47.58;25.60;;;;;;;;;;7381344;19;20268;-81
2022/03/20 05:34:08;;;;;;;53.13;27.02;;;;;;;;;;7368634;19;20386;-83
2022/03/20 05:36:34;;;;;;;48.97;27.15;;;;;;;;;;7377095;19;20015;-81
2022/03/20 05:38:59;;;;;;;45.53;25.65;;;;;;;;;;7375159;19;20341;-86
2022/03/20 05:41:45;;;;;;;53.42;27.05;;;;;;;;;;7375889;19;20051;-88
2022/03/20 05:44:11;;;;;;;48.25;26.02;;;;;;;;;;7374492;19;20050;-82
2022/03/20 05:46:37;;;;;;;49.95;27.15;;;;;;;;;;7372161;19;20027;-80
2022/03/20 05:49:02;;;;;;;51.28;28.05;;;;;;;;;;7368852;19;20015;-82
2022/03/20 05:51:27;;;;;;;47.80;26.50;;;;;;;;;;7375409;19;20010;-85
2022/03/20 05:53:52;;;;;;;45.55;25.95;;;;;;;;;;7380876;19;20263;-81
2022/03/20 05:59:01;;;;;;;50.95;26.92;;;;;;;;;;7382820;19;20949;-80
2022/03/20 06:01:26;;;;;;;46.57;26.20;;;;;;;;;;7372217;19;20082;-85
2022/03/20 06:03:52;;;;;;;49.60;26.95;;;;;;;;;;7376136;19;20247;-85
2022/03/20 06:06:17;;;;;;;53.33;28.25;;;;;;;;;;7374418;19;20265;-79
2022/03/20 06:08:42;;;;;;;52.25;25.90;;;;;;;;;;7377242;19;20032;-86
2022/03/20 06:11:07;;;;;;;50.75;27.35;;;;;;;;;;7374235;19;20010;-80
2022/03/20 06:13:35;;;;;;;46.38;25.83;;;;;;;;;;7377115;19;19998;-87
2022/03/20 06:16:01;;;;;;;49.25;26.65;;;;;;;;;;7373392;19;20002;-80
2022/03/20 06:18:26;;;;;;;49.42;26.42;;;;;;;;;;7375934;19;20486;-81
2022/03/20 06:20:52;;;;;;;51.97;26.97;;;;;;;;;;7376252;19;20023;-82
2022/03/20 06:23:17;;;;;;;48.40;25.77;;;;;;;;;;7374299;19;20244;-88
2022/03/20 06:25:43;;;;;;;47.63;25.60;;;;;;;;;;7372067;19;20094;-80
2022/03/20 06:28:08;;;;;;;53.65;25.58;;;;;;;;;;7378135;19;20030;-86
2022/03/20 06:30:33;;;;;;;45.88;25.35;;;;;;;;;;7376670;19;20014;-86
2022/03/20 06:32:59;;;;;;;48.15;24.52;;;;;;;;;;7373089;19;20472;-81
2022/03/20 06:35:24;;;;;;;45.33;24.52;;;;;;;;;;7369028;19;20039;-83
2022/03/20 06:37:50;;;;;;;46.20;24.10;;;;;;;;;;7373728;19;20003;-82
2022/03/20 06:40:15;;;;;;;51.10;25.13;;;;;;;;;;7370731;19;20639;-82
2022/03/20 06:42:44;;;;;;;45.97;24.35;;;;;;;;;;7372887;19;20031;-85
2022/03/20 06:45:11;;;;;;;48.72;24.35;;;;;;;;;;7359084;19;20054;-81
2022/03/20 06:47:37;;;;;;;43.10;24.25;;;;;;;;;;7375606;19;20018;-81
2022/03/20 06:50:03;;;;;;;47.63;25.77;;;;;;;;;;7376032;19;20347;-83
2022/03/20 06:52:28;;;;;;;43.22;23.02;;;;;;;;;;7365954;19;20014;-85
2022/03/20 06:55:01;;;;;;;43.53;24.75;;;;;;;;;;7364144;19;19994;-85
2022/03/20 06:57:26;;;;;;;45.67;24.10;;;;;;;;;;7377002;19;20014;-83
2022/03/20 06:59:53;;;;;;;46.80;24.25;;;;;;;;;;7376776;19;20399;-88
2022/03/20 07:02:18;;;;;;;42.67;23.45;;;;;;;;;;7370810;19;19994;-81
2022/03/20 07:04:44;;;;;;;47.95;24.40;;;;;;;;;;7378191;19;20007;-83
2022/03/20 07:07:09;;;;;;;43.78;22.98;;;;;;;;;;7367889;19;19998;-86
2022/03/20 07:09:34;;;;;;;43.73;23.83;;;;;;;;;;7376552;19;20073;-84
2022/03/20 07:12:00;;;;;;;44.55;23.45;;;;;;;;;;7378784;19;20266;-85
2022/03/20 07:14:25;;;;;;;44.47;24.02;;;;;;;;;;7374553;19;20022;-88
2022/03/20 07:16:52;;;;;;;45.60;23.63;;;;;;;;;;7371115;19;20007;-85
2022/03/20 07:19:17;;;;;;;45.45;23.55;;;;;;;;;;7371804;19;20025;-80
2022/03/20 07:21:42;;;;;;;41.67;22.85;;;;;;;;;;7370264;19;20090;-81
2022/03/20 07:24:08;;;;;;;40.58;21.88;;;;;;;;;;7374980;19;20470;-84
2022/03/20 07:29:32;;;;;;;44.90;23.30;;;;;;;;;;7378829;19;20088;-85
2022/03/20 07:32:02;;;;;;;44.95;22.38;;;;;;;;;;7374283;19;20015;-83
2022/03/20 07:34:28;;;;;;;42.55;23.30;;;;;;;;;;7364195;19;20457;-85
2022/03/20 07:36:53;;;;;;;44.03;22.42;;;;;;;;;;7372189;19;20077;-85
2022/03/20 07:39:18;;;;;;;42.15;22.90;;;;;;;;;;7368419;19;20031;-83
2022/03/20 07:41:43;;;;;;;38.20;21.83;;;;;;;;;;7378687;19;20018;-89
2022/03/20 07:44:09;;;;;;;40.67;21.25;;;;;;;;;;7373793;19;20023;-85
2022/03/20 07:46:36;;;;;;;39.55;22.05;;;;;;;;;;7376366;19;20034;-86
2022/03/20 07:49:02;;;;;;;44.97;23.90;;;;;;;;;;7378447;19;20702;-86
2022/03/20 07:51:30;;;;;;;40.97;22.58;;;;;;;;;;7370333;19;20006;-87
2022/03/20 07:53:55;;;;;;;39.55;21.52;;;;;;;;;;7375909;19;20010;-92
2022/03/20 07:56:22;;;;;;;41.40;23.15;;;;;;;;;;7376780;19;20481;-85
2022/03/20 07:58:47;;;;;;;39.22;21.23;;;;;;;;;;7378651;19;20017;-87
2022/03/20 08:01:13;;;;;;;42.13;21.95;;;;;;;;;;7374183;19;20010;-86
2022/03/20 08:03:40;;;;;;;42.25;22.77;;;;;;;;;;7377624;19;20106;-84
2022/03/20 08:06:07;;;;;;;43.15;23.60;;;;;;;;;;7374256;19;20018;-84
2022/03/20 08:08:33;;;;;;;42.78;22.75;;;;;;;;;;7377564;19;20462;-85
2022/03/20 08:10:58;;;;;;;45.95;23.15;;;;;;;;;;7378278;19;20025;-88
2022/03/20 08:13:23;;;;;;;42.92;22.23;;;;;;;;;;7373032;19;20762;-85
2022/03/20 08:15:48;;;;;;;40.60;22.35;;;;;;;;;;7373357;19;20011;-86
2022/03/20 08:18:14;;;;;;;43.10;22.70;;;;;;;;;;7376891;19;20018;-85
2022/03/20 08:20:40;;;;;;;49.35;23.90;;;;;;;;;;7375633;19;20019;-84
2022/03/20 08:23:06;;;;;;;45.65;23.27;;;;;;;;;;7374563;19;20416;-83
2022/03/20 08:25:31;;;;;;;41.38;23.08;;;;;;;;;;7375478;19;20010;-82
2022/03/20 08:27:56;;;;;;;45.20;24.98;;;;;;;;;;7375959;19;20034;-86
2022/03/20 08:30:22;;;;;;;42.35;23.92;;;;;;;;;;7373296;19;20002;-87
2022/03/20 08:32:47;;;;;;;46.40;23.27;;;;;;;;;;7370939;19;20010;-88
2022/03/20 08:35:14;;;;;;;43.25;23.98;;;;;;;;;;7366388;19;20517;-83
2022/03/20 08:37:49;;;;;;;51.90;23.90;;;;;;;;;;7371220;19;20355;-86
2022/03/20 08:40:16;;;;;;;46.20;23.65;;;;;;;;;;7369893;19;20014;-81
2022/03/20 08:42:45;;;;;;;41.30;22.80;;;;;;;;;;7366101;19;20353;-88
2022/03/20 08:45:11;;;;;;;45.53;25.45;;;;;;;;;;7361653;19;21057;-83
2022/03/20 08:47:37;;;;;;;44.13;23.08;;;;;;;;;;7382901;19;20140;-88
2022/03/20 08:50:02;;;;;;;43.47;23.75;;;;;;;;;;7382863;19;20066;-86
2022/03/20 08:52:27;;;;;;;42.75;23.65;;;;;;;;;;7381943;19;20019;-87
2022/03/20 08:54:52;;;;;;;43.97;23.55;;;;;;;;;;7374491;19;20001;-86
2022/03/20 08:57:17;;;;;;;44.07;24.50;;;;;;;;;;7382381;19;20025;-85
2022/03/20 08:59:44;;;;;;;43.63;23.27;;;;;;;;;;7376997;19;21135;-85
2022/03/20 09:02:09;;;;;;;44.78;23.65;;;;;;;;;;7382751;19;20255;-84
2022/03/20 09:04:34;;;;;;;46.85;23.90;;;;;;;;;;7383250;19;20011;-87
2022/03/20 09:06:59;;;;;;;44.28;23.83;;;;;;;;;;7376136;19;20462;-85
2022/03/20 09:09:25;;;;;;;49.33;24.57;;;;;;;;;;7382630;19;20034;-85
2022/03/20 09:11:50;;;;;;;41.45;23.80;;;;;;;;;;7383218;19;20528;-86
2022/03/20 09:14:16;;;;;;;48.17;25.10;;;;;;;;;;7376946;19;20383;-89
2022/03/20 09:19:26;;;;;;;47.28;25.42;;;;;;;;;;7369005;19;20018;-89
2022/03/20 09:21:51;;;;;;;42.42;23.50;;;;;;;;;;7375955;19;20018;-87
2022/03/20 09:24:17;;;;;;;45.33;24.40;;;;;;;;;;7380884;19;20025;-84
2022/03/20 09:26:43;;;;;;;47.75;25.95;;;;;;;;;;7374224;19;20607;-89
2022/03/20 09:29:08;;;;;;;44.25;25.33;;;;;;;;;;7370949;19;20021;-88
2022/03/20 09:31:34;;;;;;;45.92;25.65;;;;;;;;;;7369904;19;20013;-84
2022/03/20 09:34:01;;;;;;;44.58;23.45;;;;;;;;;;7373578;19;20543;-87
2022/03/20 09:36:26;;;;;;;43.40;24.83;;;;;;;;;;7371305;19;20015;-81
2022/03/20 09:38:51;;;;;;;45.05;25.35;;;;;;;;;;7380211;19;20030;-86
2022/03/20 09:41:17;;;;;;;44.08;24.80;;;;;;;;;;7368821;19;19999;-83
2022/03/20 09:43:43;;;;;;;49.00;25.98;;;;;;;;;;7379803;19;20017;-88
2022/03/20 09:46:08;;;;;;;46.25;25.65;;;;;;;;;;7376011;19;20351;-85
2022/03/20 09:48:34;;;;;;;45.00;25.55;;;;;;;;;;7378017;19;20025;-87
2022/03/20 09:51:01;;;;;;;52.33;27.00;;;;;;;;;;7378888;19;20816;-91
2022/03/20 09:53:26;;;;;;;47.42;26.10;;;;;;;;;;7374838;19;20074;-80
2022/03/20 09:55:55;;;;;;;47.42;25.98;;;;;;;;;;7370781;19;20015;-81
2022/03/20 09:58:23;;;;;;;47.17;26.33;;;;;;;;;;7365203;19;20014;-89
2022/03/20 10:00:48;;;;;;;45.90;26.63;;;;;;;;;;7370163;19;21004;-83
2022/03/20 10:03:17;;;;;;;48.77;27.20;;;;;;;;;;7372028;19;20014;-84
2022/03/20 10:05:43;;;;;;;46.80;26.60;;;;;;;;;;7372199;19;20884;-87
2022/03/20 10:08:17;;;;;;;47.75;25.85;;;;;;;;;;7370642;19;20228;-85
2022/03/20 10:10:43;;;;;;;49.80;26.98;;;;;;;;;;7375748;19;20006;-87
2022/03/20 10:13:11;;;;;;;49.90;27.23;;;;;;;;;;7375724;19;19994;-83
2022/03/20 10:15:41;;;;;;;54.03;27.30;;;;;;;;;;7370189;19;20022;-82
2022/03/20 10:18:11;;;;;;;48.22;26.67;;;;;;;;;;7376496;19;20015;-85
2022/03/20 10:20:42;;;;;;;51.00;26.83;;;;;;;;;;7379396;19;20013;-86
2022/03/20 10:23:26;;;;;;;56.25;28.08;;;;;;;;;;7377185;19;20403;-84
2022/03/20 10:25:51;;;;;;;;;;;;;;;;;;7374964;19;20022;-84
2022/03/20 10:28:16;;;;;;;48.00;25.90;;;;;;;;;;7373360;19;19914;-85
2022/03/20 10:30:41;;;;;;;45.00;26.33;;;;;;;;;;7379931;19;20331;-85
2022/03/20 10:33:13;;;;;;;54.53;27.47;;;;;;;;;;7381124;19;20311;-86
2022/03/20 10:35:39;;;;;;;51.88;28.17;;;;;;;;;;7375330;19;20486;-85
2022/03/20 10:38:04;;;;;;;50.80;27.70;;;;;;;;;;7376419;19;20014;-87
2022/03/20 10:40:29;;;;;;;53.77;29.70;;;;;;;;;;7377406;19;20021;-89
2022/03/20 10:43:06;;;;;;;50.92;28.75;;;;;;;;;;7372367;19;20262;-84
2022/03/20 10:45:32;;;;;;;53.60;31.25;;;;;;;;;;7371425;19;20003;-84
2022/03/20 10:48:00;;;;;;;56.53;31.42;;;;;;;;;;7370125;19;20006;-89
2022/03/20 10:50:25;;;;;;;58.88;32.88;;;;;;;;;;7371061;19;20022;-85
2022/03/20 10:53:05;;;;;;;56.60;31.95;;;;;;;;;;7372764;19;20018;-86
2022/03/20 10:55:31;;;;;;;64.22;32.45;;;;;;;;;;7372138;19;20002;-86
2022/03/20 10:57:56;;;;;;;62.05;32.00;;;;;;;;;;7373912;19;20142;-86
2022/03/20 11:00:21;;;;;;;61.05;34.10;;;;;;;;;;7376245;19;20473;-85
2022/03/20 11:02:47;;;;;;;62.67;34.22;;;;;;;;;;7376538;19;20007;-85
2022/03/20 11:05:12;;;;;;;61.78;33.90;;;;;;;;;;7374056;19;20013;-86
2022/03/20 11:07:37;;;;;;;63.53;35.50;;;;;;;;;;7375800;19;20021;-86
2022/03/20 11:10:08;;;;;;;71.07;36.60;;;;;;;;;;7374244;19;20011;-88
2022/03/20 11:12:34;;;;;;;58.70;34.75;;;;;;;;;;7378563;19;20014;-85
2022/03/20 11:15:01;;;;;;;68.63;36.53;;;;;;;;;;7368200;19;19991;-85
2022/03/20 11:17:30;;;;;;;72.88;37.58;;;;;;;;;;7376558;19;20018;-86
2022/03/20 11:19:57;;;;;;;67.68;37.20;;;;;;;;;;7369274;19;19997;-89
2022/03/20 11:22:23;;;;;;;73.32;37.60;;;;;;;;;;7368284;19;20026;-86
2022/03/20 11:24:50;;;;;;;67.97;37.45;;;;;;;;;;7369086;19;20109;-86
2022/03/20 11:27:20;;;;;;;71.00;37.50;;;;;;;;;;7371493;19;20010;-85
2022/03/20 11:29:50;;;;;;;68.38;38.15;;;;;;;;;;7353039;19;20049;-88
2022/03/20 11:32:16;;;;;;;65.50;36.83;;;;;;;;;;7373338;19;20517;-87
2022/03/20 11:34:43;;;;;;;72.40;38.08;;;;;;;;;;7370274;19;20088;-87
2022/03/20 11:37:09;;;;;;;70.10;39.00;;;;;;;;;;7369208;19;20497;-86
2022/03/20 11:39:35;;;;;;;77.63;38.92;;;;;;;;;;7360802;19;20051;-85
2022/03/20 11:42:19;;;;;;;67.63;37.80;;;;;;;;;;7352405;19;20595;-87
2022/03/20 11:44:59;;;;;;;72.35;38.47;;;;;;;;;;7349830;19;20015;-88
2022/03/20 11:47:29;;;;;;;70.63;37.63;;;;;;;;;;7356083;19;19999;-87
2022/03/20 11:50:21;;;;;;;76.57;40.92;;;;;;;;;;7351536;19;20014;-90
2022/03/20 11:53:02;;;;;;;73.40;39.65;;;;;;;;;;7352419;19;20006;-88
2022/03/20 11:55:38;;;;;;;74.50;40.28;;;;;;;;;;7364717;19;20034;-88
2022/03/20 11:58:08;;;;;;;72.72;39.55;;;;;;;;;;7373281;19;20003;-88
2022/03/20 12:00:35;;;;;;;83.53;42.22;;;;;;;;;;7376225;19;20022;-88
2022/03/20 12:03:21;;;;;;;75.70;39.92;;;;;;;;;;7371202;19;20882;-87
2022/03/20 12:06:09;;;;;;;73.25;40.80;;;;;;;;;;7371271;19;20504;-88
2022/03/20 12:08:41;;;;;;;71.60;39.92;;;;;;;;;;7369315;19;20086;-88
2022/03/20 12:11:09;;;;;;;69.07;39.05;;;;;;;;;;7356173;19;20026;-89
2022/03/20 12:13:34;;;;;;;77.13;40.50;;;;;;;;;;7366795;19;20560;-89
2022/03/20 12:15:59;;;;;;;70.13;38.33;;;;;;;;;;7357637;19;20011;-87
2022/03/20 12:18:24;;;;;;;75.10;38.42;;;;;;;;;;7370043;19;20676;-87
2022/03/20 12:21:00;;;;;;;73.53;41.22;;;;;;;;;;7375617;19;20660;-87
2022/03/20 12:23:32;;;;;;;75.13;40.80;;;;;;;;;;7382753;19;19990;-88
2022/03/20 12:25:58;;;;;;;71.68;38.90;;;;;;;;;;7378704;19;20002;-89
2022/03/20 12:28:30;;;;;;;73.57;40.28;;;;;;;;;;7380600;19;20062;-88
2022/03/20 12:30:55;;;;;;;77.85;39.70;;;;;;;;;;7380499;19;20891;-87
2022/03/20 12:33:22;;;;;;;66.40;37.97;;;;;;;;;;7384414;19;20001;-84
2022/03/20 12:35:47;;;;;;;66.75;37.45;;;;;;;;;;7373747;19;20024;-87
2022/03/20 12:38:33;;;;;;;67.13;38.50;;;;;;;;;;7360361;19;20594;-88
2022/03/20 12:41:05;;;;;;;67.60;38.85;;;;;;;;;;7375128;19;20011;-87
2022/03/20 12:43:30;;;;;;;74.50;40.00;;;;;;;;;;7377335;19;20492;-87
2022/03/20 12:45:57;;;;;;;69.25;38.35;;;;;;;;;;7371972;19;20030;-85
2022/03/20 12:48:22;;;;;;;74.13;39.38;;;;;;;;;;7377688;19;20082;-85
2022/03/20 12:50:54;;;;;;;69.40;38.72;;;;;;;;;;7382208;19;20010;-84
2022/03/20 12:53:21;;;;;;;68.38;38.35;;;;;;;;;;7376439;19;20559;-83
2022/03/20 12:55:53;;;;;;;68.40;37.90;;;;;;;;;;7371910;19;20009;-86
2022/03/20 12:58:18;;;;;;;62.88;35.65;;;;;;;;;;7377229;19;20018;-83
2022/03/20 13:00:44;;;;;;;63.70;36.13;;;;;;;;;;7381283;19;20096;-87
2022/03/20 13:03:09;;;;;;;72.72;39.33;;;;;;;;;;7379125;19;20418;-85
2022/03/20 13:05:38;;;;;;;76.20;39.35;;;;;;;;;;7376470;19;20507;-84
2022/03/20 13:08:03;;;;;;;69.75;37.42;;;;;;;;;;7376583;19;20082;-82
2022/03/20 13:10:33;;;;;;;71.53;39.03;;;;;;;;;;7382850;19;20845;-84
2022/03/20 13:13:01;;;;;;;66.30;37.10;;;;;;;;;;7374371;19;20026;-85
2022/03/20 13:15:28;;;;;;;74.57;38.10;;;;;;;;;;7379136;19;20006;-83
2022/03/20 13:17:54;;;;;;;67.13;37.35;;;;;;;;;;7374963;19;19995;-86
2022/03/20 13:20:20;;;;;;;60.72;34.88;;;;;;;;;;7381887;19;20019;-85
2022/03/20 13:22:45;;;;;;;71.35;37.05;;;;;;;;;;7380837;19;20006;-83
2022/03/20 13:25:17;;;;;;;63.35;35.80;;;;;;;;;;7380015;19;20014;-83
2022/03/20 13:27:47;;;;;;;61.95;35.58;;;;;;;;;;7379778;19;20026;-84
2022/03/20 13:30:14;;;;;;;66.70;36.42;;;;;;;;;;7377362;19;20019;-86
2022/03/20 13:32:40;;;;;;;59.08;32.38;;;;;;;;;;7376965;19;20027;-84
2022/03/20 13:35:05;;;;;;;61.60;35.70;;;;;;;;;;7376938;19;20086;-82
2022/03/20 13:37:31;;;;;;;59.75;33.72;;;;;;;;;;7368913;19;20006;-85
2022/03/20 13:39:57;;;;;;;59.92;33.70;;;;;;;;;;7368192;19;20056;-83
2022/03/20 13:42:23;;;;;;;61.25;33.25;;;;;;;;;;7373674;19;20011;-83
2022/03/20 13:44:50;;;;;;;61.30;33.25;;;;;;;;;;7378075;19;20095;-85
2022/03/20 13:47:16;;;;;;;55.22;29.60;;;;;;;;;;7373583;19;20637;-86
2022/03/20 13:49:42;;;;;;;56.15;31.38;;;;;;;;;;7362498;19;20114;-86
2022/03/20 13:52:08;;;;;;;56.35;31.33;;;;;;;;;;7361113;19;20008;-84
2022/03/20 13:54:36;;;;;;;54.35;30.42;;;;;;;;;;7348623;19;20010;-84
2022/03/20 13:57:07;;;;;;;54.20;30.10;;;;;;;;;;7367771;19;20003;-86
2022/03/20 13:59:46;;;;;;;57.63;30.05;;;;;;;;;;7375178;19;20109;-86
2022/03/20 14:02:12;;;;;;;55.65;30.27;;;;;;;;;;7375449;19;20011;-84
2022/03/20 14:04:37;;;;;;;57.67;30.08;;;;;;;;;;7377634;19;20343;-83
2022/03/20 14:07:04;;;;;;;54.25;29.92;;;;;;;;;;7377499;19;20026;-85
2022/03/20 14:09:33;;;;;;;49.38;27.75;;;;;;;;;;7381676;19;20014;-85
2022/03/20 14:11:58;;;;;;;54.03;29.85;;;;;;;;;;7380983;19;19999;-82
2022/03/20 14:14:45;;;;;;;49.90;27.67;;;;;;;;;;7371630;19;20181;-88
2022/03/20 14:17:10;;;;;;;51.40;27.10;;;;;;;;;;7376508;19;20018;-83
2022/03/20 14:19:45;;;;;;;56.17;28.50;;;;;;;;;;7367177;19;20022;-87
2022/03/20 14:22:11;;;;;;;52.80;29.13;;;;;;;;;;7368489;19;20070;-84
2022/03/20 14:24:57;;;;;;;52.20;29.00;;;;;;;;;;7370224;19;20213;-84
2022/03/20 14:27:26;;;;;;;48.10;27.65;;;;;;;;;;7379920;19;20258;-82
2022/03/20 14:41:19;;;;;;;54.88;27.75;;;;;;;;;;7377418;19;20017;-82
2022/03/20 14:43:45;;;;;;;48.83;27.40;;;;;;;;;;7376268;19;20006;-84
2022/03/20 14:46:10;;;;;;;47.67;28.07;;;;;;;;;;7366917;19;20657;-83
2022/03/20 14:48:35;;;;;;;45.42;25.55;;;;;;;;;;7375891;19;20254;-82
2022/03/20 14:51:03;;;;;;;47.80;25.50;;;;;;;;;;7375845;19;20025;-85
2022/03/20 14:53:32;;;;;;;48.03;26.40;;;;;;;;;;7376577;19;20347;-82
2022/03/20 14:55:58;;;;;;;44.83;25.25;;;;;;;;;;7357867;19;20003;-85